Orbital elements of COSMOS 2251 DEB
| Launched | 15 June 1993 |
| Flight ended | – |
| Launch site | Plesetsk Missile and Space Complex, Russia |
| Owner | Commonwealth of Independent States (former USSR) |
| NORAD ID | 38055 |
| Date fetched |
Epoch osculation |
Inc. [°] |
Ecc. | RA asc node [hr] |
Arg Peri. [°] |
Mean anom [°] |
Mean motion [rev/day] |
Abs. mag |
| Date fetched |
Epoch osculation |
Inc. [°] |
Ecc. | RA asc node [hr] |
Arg Peri. [°] |
Mean anom [°] |
Mean motion [rev/day] |
Abs. mag |
| 2026 May 05 17:57 | 2026 May 04 17:29:20 | 74.0086 | 0.00636 | 19.0344 | 18.1947 | 353.0790 | 14.78829 | – |
| 2026 May 04 17:57 | 2026 Apr 28 18:38:05 | 74.0078 | 0.00634 | 19.8160 | 31.6432 | 353.0790 | 14.78829 | – |
| 2026 May 03 17:57 | 2026 Apr 28 18:38:05 | 74.0078 | 0.00634 | 19.8160 | 31.6432 | 353.0790 | 14.78829 | – |
| 2026 May 02 17:57 | 2026 Apr 28 18:38:05 | 74.0078 | 0.00634 | 19.8160 | 31.6432 | 353.0790 | 14.78829 | – |
| 2026 May 01 17:56 | 2026 Apr 28 18:38:05 | 74.0078 | 0.00634 | 19.8160 | 31.6432 | 353.0790 | 14.78829 | – |
| 2026 Apr 30 17:56 | 2026 Apr 28 18:38:05 | 74.0078 | 0.00634 | 19.8160 | 31.6432 | 353.0790 | 14.78829 | – |
| 2026 Apr 29 17:57 | 2026 Apr 20 00:09:17 | 74.0078 | 0.00632 | 20.9674 | 51.3900 | 353.0790 | 14.78829 | – |
| 2026 Apr 28 17:56 | 2026 Apr 20 00:09:17 | 74.0078 | 0.00632 | 20.9674 | 51.3900 | 353.0790 | 14.78829 | – |
| 2026 Apr 27 17:58 | 2026 Apr 20 00:09:17 | 74.0078 | 0.00632 | 20.9674 | 51.3900 | 353.0790 | 14.78829 | – |
| 2026 Apr 26 17:58 | 2026 Apr 20 00:09:17 | 74.0078 | 0.00632 | 20.9674 | 51.3900 | 353.0790 | 14.78829 | – |
| 2026 Apr 25 17:58 | 2026 Apr 20 00:09:17 | 74.0078 | 0.00632 | 20.9674 | 51.3900 | 353.0790 | 14.78829 | – |
| 2026 Apr 24 17:59 | 2026 Apr 20 00:09:17 | 74.0078 | 0.00632 | 20.9674 | 51.3900 | 353.0790 | 14.78829 | – |
| 2026 Apr 23 17:57 | 2026 Apr 19 08:02:48 | 74.0078 | 0.00633 | 21.0555 | 52.9702 | 353.0790 | 14.78829 | – |
| 2026 Apr 22 17:57 | 2026 Apr 19 08:02:48 | 74.0078 | 0.00633 | 21.0555 | 52.9702 | 353.0790 | 14.78829 | – |
| 2026 Apr 21 17:57 | 2026 Apr 19 08:02:48 | 74.0078 | 0.00633 | 21.0555 | 52.9702 | 353.0790 | 14.78829 | – |
| 2026 Apr 20 17:57 | 2026 Apr 19 08:02:48 | 74.0078 | 0.00633 | 21.0555 | 52.9702 | 353.0790 | 14.78829 | – |
| 2026 Apr 19 17:58 | 2026 Apr 19 08:02:48 | 74.0078 | 0.00633 | 21.0555 | 52.9702 | 353.0790 | 14.78829 | – |
| 2026 Apr 18 17:56 | 2026 Apr 11 01:49:32 | 74.0107 | 0.00630 | 22.1397 | 71.5434 | 353.0790 | 14.78829 | – |
| 2026 Apr 16 17:57 | 2026 Apr 11 01:49:32 | 74.0107 | 0.00630 | 22.1397 | 71.5434 | 353.0790 | 14.78829 | – |
| 2026 Apr 14 17:57 | 2026 Apr 11 01:49:32 | 74.0107 | 0.00630 | 22.1397 | 71.5434 | 353.0790 | 14.78829 | – |
| 2026 Apr 13 17:57 | 2026 Apr 11 01:49:32 | 74.0107 | 0.00630 | 22.1397 | 71.5434 | 353.0790 | 14.78829 | – |
| 2026 Apr 12 17:57 | 2026 Apr 07 22:30:38 | 74.0095 | 0.00629 | 22.5516 | 78.5980 | 353.0790 | 14.78829 | – |
| 2026 Apr 11 17:57 | 2026 Apr 07 22:30:38 | 74.0095 | 0.00629 | 22.5516 | 78.5980 | 353.0790 | 14.78829 | – |
| 2026 Apr 10 17:58 | 2026 Apr 07 22:30:38 | 74.0095 | 0.00629 | 22.5516 | 78.5980 | 353.0790 | 14.78829 | – |
| 2026 Apr 09 18:01 | 2026 Apr 07 22:30:38 | 74.0095 | 0.00629 | 22.5516 | 78.5980 | 353.0790 | 14.78829 | – |
| 2026 Apr 08 17:57 | 2026 Apr 07 22:30:38 | 74.0095 | 0.00629 | 22.5516 | 78.5980 | 353.0790 | 14.78829 | – |